Lakeview Park, Washington
Current Conditions -  °F | °C
As of 10:53 AM on Monday 20 Oct 2014 (Local Time) from KEPH Reporting Station
Few Clouds Few Clouds  
Wind Chill: 56°   Ceiling: Unl
Heat Index: 56°   Visibility: 10mi
Dew Point: 47°   Wind: 3mph
Humidity: 72%   Direction: NA
Pressure: 29.74"   Gusts: NA
Location:  47.4314°N, 119.485°W
Report Text: KEPH 201753Z AUTO VRB03KT 10SM FEW085 13/08 A2974 RMK AO2 SLP071 T01330083 10133 20067 50006
Loading
Personal Weather Stations






























Interactive Weather Map
Tropical Storm Tracking
New forecast layout! Learn more

10-Day Weather Forecast

Advertisements
Track Severe Weather on mobile